sensor_id;sensor_type;location;lat;lon;timestamp;temperature;humidity
68276;DHT22;55106;51.438;-0.098;2022-10-19T00:00:19;11.52;96.35
68276;DHT22;55106;51.438;-0.098;2022-10-19T00:02:44;11.54;96.36
68276;DHT22;55106;51.438;-0.098;2022-10-19T00:05:10;11.50;96.37
68276;DHT22;55106;51.438;-0.098;2022-10-19T00:07:35;11.45;96.63
68276;DHT22;55106;51.438;-0.098;2022-10-19T00:10:01;11.47;96.67
68276;DHT22;55106;51.438;-0.098;2022-10-19T00:12:26;11.47;96.67
68276;DHT22;55106;51.438;-0.098;2022-10-19T00:14:52;11.43;96.73
68276;DHT22;55106;51.438;-0.098;2022-10-19T00:17:17;11.38;96.81
68276;DHT22;55106;51.438;-0.098;2022-10-19T00:19:42;11.33;96.97
68276;DHT22;55106;51.438;-0.098;2022-10-19T00:22:08;11.33;97.04
68276;DHT22;55106;51.438;-0.098;2022-10-19T00:24:33;11.30;97.20
68276;DHT22;55106;51.438;-0.098;2022-10-19T00:26:59;11.28;97.23
68276;DHT22;55106;51.438;-0.098;2022-10-19T00:29:24;11.27;97.35
68276;DHT22;55106;51.438;-0.098;2022-10-19T00:31:50;11.33;97.26
68276;DHT22;55106;51.438;-0.098;2022-10-19T00:34:16;11.31;97.27
68276;DHT22;55106;51.438;-0.098;2022-10-19T00:36:41;11.27;97.38
68276;DHT22;55106;51.438;-0.098;2022-10-19T00:39:11;11.26;97.38
68276;DHT22;55106;51.438;-0.098;2022-10-19T00:41:37;11.19;97.48
68276;DHT22;55106;51.438;-0.098;2022-10-19T00:46:58;11.20;97.60
68276;DHT22;55106;51.438;-0.098;2022-10-19T00:49:28;11.16;97.65
68276;DHT22;55106;51.438;-0.098;2022-10-19T00:52:01;11.13;97.74
68276;DHT22;55106;51.438;-0.098;2022-10-19T00:54:28;11.16;97.84
68276;DHT22;55106;51.438;-0.098;2022-10-19T00:56:56;11.12;97.86
68276;DHT22;55106;51.438;-0.098;2022-10-19T00:59:24;11.13;97.97
68276;DHT22;55106;51.438;-0.098;2022-10-19T01:01:51;11.14;97.91
68276;DHT22;55106;51.438;-0.098;2022-10-19T01:04:19;11.14;97.99
68276;DHT22;55106;51.438;-0.098;2022-10-19T01:06:45;11.19;97.92
68276;DHT22;55106;51.438;-0.098;2022-10-19T01:09:11;11.17;97.78
68276;DHT22;55106;51.438;-0.098;2022-10-19T01:14:59;11.14;97.92
68276;DHT22;55106;51.438;-0.098;2022-10-19T01:33:59;11.14;98.10
68276;DHT22;55106;51.438;-0.098;2022-10-19T01:36:42;11.20;98.13
68276;DHT22;55106;51.438;-0.098;2022-10-19T01:44:43;11.17;98.29
68276;DHT22;55106;51.438;-0.098;2022-10-19T01:47:21;11.13;98.40
68276;DHT22;55106;51.438;-0.098;2022-10-19T01:50:00;11.17;98.51
68276;DHT22;55106;51.438;-0.098;2022-10-19T01:52:28;11.17;98.55
68276;DHT22;55106;51.438;-0.098;2022-10-19T01:54:56;11.14;98.56
68276;DHT22;55106;51.438;-0.098;2022-10-19T01:57:30;11.14;98.61
68276;DHT22;55106;51.438;-0.098;2022-10-19T01:59:56;11.19;98.57
68276;DHT22;55106;51.438;-0.098;2022-10-19T02:02:24;11.19;98.56
68276;DHT22;55106;51.438;-0.098;2022-10-19T02:04:50;11.28;98.62
68276;DHT22;55106;51.438;-0.098;2022-10-19T02:07:19;11.26;98.43
68276;DHT22;55106;51.438;-0.098;2022-10-19T02:09:46;11.34;98.49
68276;DHT22;55106;51.438;-0.098;2022-10-19T02:12:12;11.38;98.38
68276;DHT22;55106;51.438;-0.098;2022-10-19T02:14:42;11.37;98.32
68276;DHT22;55106;51.438;-0.098;2022-10-19T02:17:11;11.38;98.34
68276;DHT22;55106;51.438;-0.098;2022-10-19T02:19:38;11.38;98.35
68276;DHT22;55106;51.438;-0.098;2022-10-19T02:22:04;11.41;98.24
68276;DHT22;55106;51.438;-0.098;2022-10-19T02:24:30;11.40;98.42
68276;DHT22;55106;51.438;-0.098;2022-10-19T02:26:55;11.47;98.13
68276;DHT22;55106;51.438;-0.098;2022-10-19T02:29:21;11.44;98.16
68276;DHT22;55106;51.438;-0.098;2022-10-19T02:31:47;11.47;98.14
68276;DHT22;55106;51.438;-0.098;2022-10-19T02:34:13;11.40;98.17
68276;DHT22;55106;51.438;-0.098;2022-10-19T02:36:38;11.40;98.30
68276;DHT22;55106;51.438;-0.098;2022-10-19T02:39:05;11.40;98.19
68276;DHT22;55106;51.438;-0.098;2022-10-19T02:41:48;11.44;98.28
68276;DHT22;55106;51.438;-0.098;2022-10-19T02:44:44;11.51;97.97
68276;DHT22;55106;51.438;-0.098;2022-10-19T02:47:14;11.55;97.72
68276;DHT22;55106;51.438;-0.098;2022-10-19T02:49:42;11.60;97.72
68276;DHT22;55106;51.438;-0.098;2022-10-19T02:52:09;11.60;97.68
68276;DHT22;55106;51.438;-0.098;2022-10-19T02:54:36;11.60;97.60
68276;DHT22;55106;51.438;-0.098;2022-10-19T02:57:14;11.67;97.30
68276;DHT22;55106;51.438;-0.098;2022-10-19T02:59:40;11.61;97.29
68276;DHT22;55106;51.438;-0.098;2022-10-19T03:02:06;11.60;97.41
68276;DHT22;55106;51.438;-0.098;2022-10-19T03:04:31;11.64;97.19
68276;DHT22;55106;51.438;-0.098;2022-10-19T03:06:57;11.64;97.21
68276;DHT22;55106;51.438;-0.098;2022-10-19T03:09:22;11.68;96.94
68276;DHT22;55106;51.438;-0.098;2022-10-19T03:11:48;11.65;96.99
68276;DHT22;55106;51.438;-0.098;2022-10-19T03:14:13;11.61;97.01
68276;DHT22;55106;51.438;-0.098;2022-10-19T03:16:38;11.65;97.13
68276;DHT22;55106;51.438;-0.098;2022-10-19T03:19:04;11.65;97.09
68276;DHT22;55106;51.438;-0.098;2022-10-19T03:21:29;11.72;96.92
68276;DHT22;55106;51.438;-0.098;2022-10-19T03:23:54;11.86;96.52
68276;DHT22;55106;51.438;-0.098;2022-10-19T03:26:20;11.86;96.30
68276;DHT22;55106;51.438;-0.098;2022-10-19T03:28:45;11.86;96.41
68276;DHT22;55106;51.438;-0.098;2022-10-19T03:31:11;11.93;96.10
68276;DHT22;55106;51.438;-0.098;2022-10-19T03:33:36;11.96;95.96
68276;DHT22;55106;51.438;-0.098;2022-10-19T03:36:15;11.99;95.77
68276;DHT22;55106;51.438;-0.098;2022-10-19T03:38:41;12.10;95.45
68276;DHT22;55106;51.438;-0.098;2022-10-19T03:41:07;12.15;95.17
68276;DHT22;55106;51.438;-0.098;2022-10-19T03:43:33;12.15;95.21
68276;DHT22;55106;51.438;-0.098;2022-10-19T03:45:59;12.27;94.61
68276;DHT22;55106;51.438;-0.098;2022-10-19T03:48:24;12.27;94.48
68276;DHT22;55106;51.438;-0.098;2022-10-19T03:51:04;12.26;94.38
68276;DHT22;55106;51.438;-0.098;2022-10-19T03:53:30;12.33;94.17
68276;DHT22;55106;51.438;-0.098;2022-10-19T03:56:07;12.29;94.17
68276;DHT22;55106;51.438;-0.098;2022-10-19T03:58:35;12.25;94.21
68276;DHT22;55106;51.438;-0.098;2022-10-19T04:01:04;12.33;93.92
68276;DHT22;55106;51.438;-0.098;2022-10-19T04:03:30;12.34;93.86
68276;DHT22;55106;51.438;-0.098;2022-10-19T04:06:01;12.36;93.73
68276;DHT22;55106;51.438;-0.098;2022-10-19T04:08:27;12.32;93.82
68276;DHT22;55106;51.438;-0.098;2022-10-19T04:11:01;12.37;93.74
68276;DHT22;55106;51.438;-0.098;2022-10-19T04:13:27;12.33;93.84
68276;DHT22;55106;51.438;-0.098;2022-10-19T04:15:52;12.33;93.82
68276;DHT22;55106;51.438;-0.098;2022-10-19T04:18:18;12.32;94.02
68276;DHT22;55106;51.438;-0.098;2022-10-19T04:20:43;12.33;93.91
68276;DHT22;55106;51.438;-0.098;2022-10-19T04:23:08;12.27;94.07
68276;DHT22;55106;51.438;-0.098;2022-10-19T04:25:34;12.37;93.79
68276;DHT22;55106;51.438;-0.098;2022-10-19T04:27:59;12.34;93.85
68276;DHT22;55106;51.438;-0.098;2022-10-19T04:30:25;12.36;93.92
68276;DHT22;55106;51.438;-0.098;2022-10-19T04:32:50;12.27;94.22
68276;DHT22;55106;51.438;-0.098;2022-10-19T04:35:15;12.32;94.18
68276;DHT22;55106;51.438;-0.098;2022-10-19T04:37:41;12.34;93.99
68276;DHT22;55106;51.438;-0.098;2022-10-19T04:40:07;12.34;94.23
68276;DHT22;55106;51.438;-0.098;2022-10-19T04:42:32;12.36;94.26
68276;DHT22;55106;51.438;-0.098;2022-10-19T04:44:58;12.41;94.04
68276;DHT22;55106;51.438;-0.098;2022-10-19T04:47:23;12.40;94.06
68276;DHT22;55106;51.438;-0.098;2022-10-19T04:49:49;12.41;94.14
68276;DHT22;55106;51.438;-0.098;2022-10-19T04:52:14;12.33;94.41
68276;DHT22;55106;51.438;-0.098;2022-10-19T04:54:39;12.34;94.36
68276;DHT22;55106;51.438;-0.098;2022-10-19T04:57:08;12.34;94.45
68276;DHT22;55106;51.438;-0.098;2022-10-19T04:59:33;12.29;94.59
68276;DHT22;55106;51.438;-0.098;2022-10-19T05:01:59;12.22;94.99
68276;DHT22;55106;51.438;-0.098;2022-10-19T05:04:24;12.20;95.22
68276;DHT22;55106;51.438;-0.098;2022-10-19T05:06:49;12.25;95.22
68276;DHT22;55106;51.438;-0.098;2022-10-19T05:09:15;12.26;95.13
68276;DHT22;55106;51.438;-0.098;2022-10-19T05:11:40;12.27;95.26
68276;DHT22;55106;51.438;-0.098;2022-10-19T05:14:05;12.30;95.20
68276;DHT22;55106;51.438;-0.098;2022-10-19T05:16:31;12.33;95.28
68276;DHT22;55106;51.438;-0.098;2022-10-19T05:18:56;12.37;95.07
68276;DHT22;55106;51.438;-0.098;2022-10-19T05:21:23;12.32;95.25
68276;DHT22;55106;51.438;-0.098;2022-10-19T05:23:53;12.37;95.33
68276;DHT22;55106;51.438;-0.098;2022-10-19T05:26:20;12.32;95.32
68276;DHT22;55106;51.438;-0.098;2022-10-19T05:28:51;12.37;95.59
68276;DHT22;55106;51.438;-0.098;2022-10-19T05:31:22;12.29;95.62
68276;DHT22;55106;51.438;-0.098;2022-10-19T05:33:48;12.30;95.59
68276;DHT22;55106;51.438;-0.098;2022-10-19T05:38:39;12.32;95.71
68276;DHT22;55106;51.438;-0.098;2022-10-19T05:41:05;12.27;95.84
68276;DHT22;55106;51.438;-0.098;2022-10-19T05:43:30;12.27;96.14
68276;DHT22;55106;51.438;-0.098;2022-10-19T05:45:56;12.34;95.86
68276;DHT22;55106;51.438;-0.098;2022-10-19T05:48:21;12.34;96.00
68276;DHT22;55106;51.438;-0.098;2022-10-19T05:50:53;12.33;95.95
68276;DHT22;55106;51.438;-0.098;2022-10-19T05:53:19;12.34;95.99
68276;DHT22;55106;51.438;-0.098;2022-10-19T05:55:44;12.39;95.93
68276;DHT22;55106;51.438;-0.098;2022-10-19T05:58:09;12.41;95.85
68276;DHT22;55106;51.438;-0.098;2022-10-19T06:00:35;12.44;95.96
68276;DHT22;55106;51.438;-0.098;2022-10-19T06:03:00;12.48;95.73
68276;DHT22;55106;51.438;-0.098;2022-10-19T06:05:25;12.58;95.62
68276;DHT22;55106;51.438;-0.098;2022-10-19T06:07:51;12.57;95.54
68276;DHT22;55106;51.438;-0.098;2022-10-19T06:10:16;12.68;95.37
68276;DHT22;55106;51.438;-0.098;2022-10-19T06:12:42;12.69;95.26
68276;DHT22;55106;51.438;-0.098;2022-10-19T06:15:07;12.73;95.27
68276;DHT22;55106;51.438;-0.098;2022-10-19T06:17:33;12.73;95.28
68276;DHT22;55106;51.438;-0.098;2022-10-19T06:19:58;12.75;95.03
68276;DHT22;55106;51.438;-0.098;2022-10-19T06:22:23;12.77;95.10
68276;DHT22;55106;51.438;-0.098;2022-10-19T06:24:49;12.77;95.15
68276;DHT22;55106;51.438;-0.098;2022-10-19T06:27:15;12.74;95.27
68276;DHT22;55106;51.438;-0.098;2022-10-19T06:29:40;12.81;94.92
68276;DHT22;55106;51.438;-0.098;2022-10-19T06:32:06;12.78;94.99
68276;DHT22;55106;51.438;-0.098;2022-10-19T06:34:31;12.83;94.99
68276;DHT22;55106;51.438;-0.098;2022-10-19T06:36:56;12.87;94.74
68276;DHT22;55106;51.438;-0.098;2022-10-19T06:39:22;12.88;94.68
68276;DHT22;55106;51.438;-0.098;2022-10-19T06:41:47;12.88;94.78
68276;DHT22;55106;51.438;-0.098;2022-10-19T06:44:12;12.88;94.77
68276;DHT22;55106;51.438;-0.098;2022-10-19T06:46:38;12.91;94.62
68276;DHT22;55106;51.438;-0.098;2022-10-19T06:49:03;12.91;94.64
68276;DHT22;55106;51.438;-0.098;2022-10-19T06:51:30;12.89;94.67
68276;DHT22;55106;51.438;-0.098;2022-10-19T06:53:56;12.94;94.43
68276;DHT22;55106;51.438;-0.098;2022-10-19T06:56:25;12.91;94.44
68276;DHT22;55106;51.438;-0.098;2022-10-19T06:58:51;12.94;94.55
68276;DHT22;55106;51.438;-0.098;2022-10-19T07:01:16;13.04;93.95
68276;DHT22;55106;51.438;-0.098;2022-10-19T07:03:42;13.05;93.82
68276;DHT22;55106;51.438;-0.098;2022-10-19T07:06:09;13.08;93.70
68276;DHT22;55106;51.438;-0.098;2022-10-19T07:08:36;13.14;93.47
68276;DHT22;55106;51.438;-0.098;2022-10-19T07:11:04;13.16;93.50
68276;DHT22;55106;51.438;-0.098;2022-10-19T07:13:30;13.20;93.25
68276;DHT22;55106;51.438;-0.098;2022-10-19T07:15:57;13.26;92.89
68276;DHT22;55106;51.438;-0.098;2022-10-19T07:18:24;13.30;92.69
68276;DHT22;55106;51.438;-0.098;2022-10-19T07:20:57;13.36;92.65
68276;DHT22;55106;51.438;-0.098;2022-10-19T07:23:24;13.36;92.61
68276;DHT22;55106;51.438;-0.098;2022-10-19T07:25:50;13.36;92.63
68276;DHT22;55106;51.438;-0.098;2022-10-19T07:28:18;13.42;92.48
68276;DHT22;55106;51.438;-0.098;2022-10-19T07:30:43;13.42;92.33
68276;DHT22;55106;51.438;-0.098;2022-10-19T07:33:08;13.44;92.21
68276;DHT22;55106;51.438;-0.098;2022-10-19T07:35:34;13.49;92.11
68276;DHT22;55106;51.438;-0.098;2022-10-19T07:38:00;13.52;92.28
68276;DHT22;55106;51.438;-0.098;2022-10-19T07:40:26;13.54;91.96
68276;DHT22;55106;51.438;-0.098;2022-10-19T07:42:52;13.62;91.47
68276;DHT22;55106;51.438;-0.098;2022-10-19T07:45:17;13.63;91.49
68276;DHT22;55106;51.438;-0.098;2022-10-19T07:47:55;13.64;91.66
68276;DHT22;55106;51.438;-0.098;2022-10-19T07:50:21;13.69;91.41
68276;DHT22;55106;51.438;-0.098;2022-10-19T07:52:52;13.74;91.05
68276;DHT22;55106;51.438;-0.098;2022-10-19T07:55:18;13.80;90.73
68276;DHT22;55106;51.438;-0.098;2022-10-19T07:57:48;13.84;90.59
68276;DHT22;55106;51.438;-0.098;2022-10-19T08:00:15;13.90;90.43
68276;DHT22;55106;51.438;-0.098;2022-10-19T08:02:42;13.94;90.47
68276;DHT22;55106;51.438;-0.098;2022-10-19T08:05:16;14.00;89.90
68276;DHT22;55106;51.438;-0.098;2022-10-19T08:07:44;14.04;89.90
68276;DHT22;55106;51.438;-0.098;2022-10-19T08:10:11;14.08;89.52
68276;DHT22;55106;51.438;-0.098;2022-10-19T08:12:36;14.05;89.49
68276;DHT22;55106;51.438;-0.098;2022-10-19T08:15:02;14.14;89.75
68276;DHT22;55106;51.438;-0.098;2022-10-19T08:17:33;14.12;89.17
68276;DHT22;55106;51.438;-0.098;2022-10-19T08:19:59;14.18;88.93
68276;DHT22;55106;51.438;-0.098;2022-10-19T08:22:25;14.28;88.47
68276;DHT22;55106;51.438;-0.098;2022-10-19T08:24:50;14.40;88.32
68276;DHT22;55106;51.438;-0.098;2022-10-19T08:27:15;14.52;87.83
68276;DHT22;55106;51.438;-0.098;2022-10-19T08:29:41;14.66;87.29
68276;DHT22;55106;51.438;-0.098;2022-10-19T08:32:06;14.77;87.08
68276;DHT22;55106;51.438;-0.098;2022-10-19T08:34:33;14.90;86.76
68276;DHT22;55106;51.438;-0.098;2022-10-19T08:37:00;14.97;86.92
68276;DHT22;55106;51.438;-0.098;2022-10-19T08:39:26;15.00;86.16
68276;DHT22;55106;51.438;-0.098;2022-10-19T08:42:00;15.14;85.82
68276;DHT22;55106;51.438;-0.098;2022-10-19T08:47:51;15.58;84.42
68276;DHT22;55106;51.438;-0.098;2022-10-19T08:50:20;15.42;84.43
68276;DHT22;55106;51.438;-0.098;2022-10-19T08:53:34;15.75;83.70
68276;DHT22;55106;51.438;-0.098;2022-10-19T08:55:56;15.38;83.97
68276;DHT22;55106;51.438;-0.098;2022-10-19T08:58:55;15.30;84.16
68276;DHT22;55106;51.438;-0.098;2022-10-19T09:04:29;15.15;84.11
68276;DHT22;55106;51.438;-0.098;2022-10-19T09:10:00;15.03;84.21
68276;DHT22;55106;51.438;-0.098;2022-10-19T09:12:59;15.12;84.14
68276;DHT22;55106;51.438;-0.098;2022-10-19T09:15:47;15.00;84.30
68276;DHT22;55106;51.438;-0.098;2022-10-19T09:20:51;15.20;83.81
68276;DHT22;55106;51.438;-0.098;2022-10-19T09:23:25;15.23;83.89
68276;DHT22;55106;51.438;-0.098;2022-10-19T09:25:52;15.12;83.76
68276;DHT22;55106;51.438;-0.098;2022-10-19T09:30:52;15.11;83.66
68276;DHT22;55106;51.438;-0.098;2022-10-19T09:33:26;15.31;83.55
68276;DHT22;55106;51.438;-0.098;2022-10-19T09:35:53;15.31;83.41
68276;DHT22;55106;51.438;-0.098;2022-10-19T09:38:23;15.28;83.10
68276;DHT22;55106;51.438;-0.098;2022-10-19T09:40:49;15.27;82.71
68276;DHT22;55106;51.438;-0.098;2022-10-19T09:43:15;15.39;82.19
68276;DHT22;55106;51.438;-0.098;2022-10-19T09:46:12;16.38;80.33
68276;DHT22;55106;51.438;-0.098;2022-10-19T09:48:50;16.61;78.78
68276;DHT22;55106;51.438;-0.098;2022-10-19T09:51:17;16.61;77.98
68276;DHT22;55106;51.438;-0.098;2022-10-19T09:53:44;16.76;78.11
68276;DHT22;55106;51.438;-0.098;2022-10-19T09:56:20;17.03;76.63
68276;DHT22;55106;51.438;-0.098;2022-10-19T09:58:52;17.34;76.16
68276;DHT22;55106;51.438;-0.098;2022-10-19T10:01:33;17.22;75.41
68276;DHT22;55106;51.438;-0.098;2022-10-19T10:04:05;16.93;75.93
68276;DHT22;55106;51.438;-0.098;2022-10-19T10:06:32;16.75;77.03
68276;DHT22;55106;51.438;-0.098;2022-10-19T10:08:58;16.47;78.39
68276;DHT22;55106;51.438;-0.098;2022-10-19T10:11:35;17.37;76.91
68276;DHT22;55106;51.438;-0.098;2022-10-19T10:14:26;16.57;78.12
68276;DHT22;55106;51.438;-0.098;2022-10-19T10:16:56;16.73;78.46
68276;DHT22;55106;51.438;-0.098;2022-10-19T10:19:26;16.55;79.22
68276;DHT22;55106;51.438;-0.098;2022-10-19T10:21:54;16.55;78.59
68276;DHT22;55106;51.438;-0.098;2022-10-19T10:24:23;16.35;78.97
68276;DHT22;55106;51.438;-0.098;2022-10-19T10:26:53;16.69;77.75
68276;DHT22;55106;51.438;-0.098;2022-10-19T10:31:59;17.02;77.39
68276;DHT22;55106;51.438;-0.098;2022-10-19T10:37:02;17.46;76.23
68276;DHT22;55106;51.438;-0.098;2022-10-19T10:39:32;16.89;77.42
68276;DHT22;55106;51.438;-0.098;2022-10-19T10:42:09;16.73;78.77
68276;DHT22;55106;51.438;-0.098;2022-10-19T10:44:35;16.47;79.99
68276;DHT22;55106;51.438;-0.098;2022-10-19T10:47:04;16.07;81.22
68276;DHT22;55106;51.438;-0.098;2022-10-19T10:49:39;15.89;81.64
68276;DHT22;55106;51.438;-0.098;2022-10-19T10:52:09;15.93;81.75
68276;DHT22;55106;51.438;-0.098;2022-10-19T10:54:36;16.17;81.47
68276;DHT22;55106;51.438;-0.098;2022-10-19T11:05:28;16.28;80.03
68276;DHT22;55106;51.438;-0.098;2022-10-19T11:10:35;16.48;80.57
68276;DHT22;55106;51.438;-0.098;2022-10-19T11:13:11;16.54;80.20
68276;DHT22;55106;51.438;-0.098;2022-10-19T11:15:55;16.47;80.20
68276;DHT22;55106;51.438;-0.098;2022-10-19T11:18:45;16.24;80.48
68276;DHT22;55106;51.438;-0.098;2022-10-19T11:31:53;16.14;80.94
68276;DHT22;55106;51.438;-0.098;2022-10-19T11:40:36;16.34;80.67
68276;DHT22;55106;51.438;-0.098;2022-10-19T11:46:15;15.94;81.58
68276;DHT22;55106;51.438;-0.098;2022-10-19T11:49:25;15.70;81.95
68276;DHT22;55106;51.438;-0.098;2022-10-19T11:52:11;15.66;81.93
68276;DHT22;55106;51.438;-0.098;2022-10-19T12:00:33;15.55;82.58
68276;DHT22;55106;51.438;-0.098;2022-10-19T12:06:25;15.76;82.01
68276;DHT22;55106;51.438;-0.098;2022-10-19T12:10:11;15.86;81.59
68276;DHT22;55106;51.438;-0.098;2022-10-19T12:15:00;15.70;82.41
68276;DHT22;55106;51.438;-0.098;2022-10-19T12:17:30;15.75;82.23
68276;DHT22;55106;51.438;-0.098;2022-10-19T12:20:05;15.66;82.27
68276;DHT22;55106;51.438;-0.098;2022-10-19T12:22:33;15.87;81.94
68276;DHT22;55106;51.438;-0.098;2022-10-19T12:25:03;16.00;81.67
68276;DHT22;55106;51.438;-0.098;2022-10-19T12:27:34;16.07;81.11
68276;DHT22;55106;51.438;-0.098;2022-10-19T12:30:29;16.14;80.92
68276;DHT22;55106;51.438;-0.098;2022-10-19T12:33:03;16.18;80.76
68276;DHT22;55106;51.438;-0.098;2022-10-19T12:39:07;15.67;82.64
68276;DHT22;55106;51.438;-0.098;2022-10-19T12:47:23;15.56;83.21
68276;DHT22;55106;51.438;-0.098;2022-10-19T12:49:56;15.58;83.26
68276;DHT22;55106;51.438;-0.098;2022-10-19T12:52:45;15.79;82.79
68276;DHT22;55106;51.438;-0.098;2022-10-19T12:55:26;16.07;82.19
68276;DHT22;55106;51.438;-0.098;2022-10-19T12:57:59;16.09;82.09
68276;DHT22;55106;51.438;-0.098;2022-10-19T13:00:32;16.06;82.15
68276;DHT22;55106;51.438;-0.098;2022-10-19T13:03:19;15.92;82.32
68276;DHT22;55106;51.438;-0.098;2022-10-19T13:06:01;15.89;82.48
68276;DHT22;55106;51.438;-0.098;2022-10-19T13:09:18;15.82;82.60
68276;DHT22;55106;51.438;-0.098;2022-10-19T13:11:16;15.78;82.78
68276;DHT22;55106;51.438;-0.098;2022-10-19T13:14:58;15.79;82.83
68276;DHT22;55106;51.438;-0.098;2022-10-19T13:16:57;15.92;82.86
68276;DHT22;55106;51.438;-0.098;2022-10-19T13:19:26;16.04;82.25
68276;DHT22;55106;51.438;-0.098;2022-10-19T13:21:53;16.06;82.42
68276;DHT22;55106;51.438;-0.098;2022-10-19T13:29:27;15.85;82.63
68276;DHT22;55106;51.438;-0.098;2022-10-19T13:38:22;15.61;83.24
68276;DHT22;55106;51.438;-0.098;2022-10-19T13:46:07;15.61;83.62
68276;DHT22;55106;51.438;-0.098;2022-10-19T13:48:48;15.63;83.49
68276;DHT22;55106;51.438;-0.098;2022-10-19T13:59:29;15.66;83.96
68276;DHT22;55106;51.438;-0.098;2022-10-19T14:07:24;15.51;84.27
68276;DHT22;55106;51.438;-0.098;2022-10-19T14:10:16;15.48;84.70
68276;DHT22;55106;51.438;-0.098;2022-10-19T14:12:43;15.38;85.05
68276;DHT22;55106;51.438;-0.098;2022-10-19T14:15:30;15.44;85.12
68276;DHT22;55106;51.438;-0.098;2022-10-19T14:17:57;15.44;85.38
68276;DHT22;55106;51.438;-0.098;2022-10-19T14:20:30;15.42;85.17
68276;DHT22;55106;51.438;-0.098;2022-10-19T14:22:57;15.35;85.34
68276;DHT22;55106;51.438;-0.098;2022-10-19T14:25:26;15.32;85.49
68276;DHT22;55106;51.438;-0.098;2022-10-19T14:27:58;15.44;85.30
68276;DHT22;55106;51.438;-0.098;2022-10-19T14:30:30;15.38;85.44
68276;DHT22;55106;51.438;-0.098;2022-10-19T14:33:04;15.24;85.79
68276;DHT22;55106;51.438;-0.098;2022-10-19T14:35:36;15.12;86.30
68276;DHT22;55106;51.438;-0.098;2022-10-19T14:38:37;15.06;86.48
68276;DHT22;55106;51.438;-0.098;2022-10-19T14:41:04;15.12;86.53
68276;DHT22;55106;51.438;-0.098;2022-10-19T14:43:31;15.15;86.44
68276;DHT22;55106;51.438;-0.098;2022-10-19T14:46:12;15.01;86.78
68276;DHT22;55106;51.438;-0.098;2022-10-19T14:48:43;14.94;87.12
68276;DHT22;55106;51.438;-0.098;2022-10-19T14:51:47;14.86;87.38
68276;DHT22;55106;51.438;-0.098;2022-10-19T14:54:40;14.79;87.78
68276;DHT22;55106;51.438;-0.098;2022-10-19T14:57:14;14.79;87.91
68276;DHT22;55106;51.438;-0.098;2022-10-19T14:59:54;14.83;87.77
68276;DHT22;55106;51.438;-0.098;2022-10-19T15:02:27;14.90;87.49
68276;DHT22;55106;51.438;-0.098;2022-10-19T15:04:54;14.94;87.46
68276;DHT22;55106;51.438;-0.098;2022-10-19T15:07:41;15.03;87.34
68276;DHT22;55106;51.438;-0.098;2022-10-19T15:13:02;15.15;86.81
68276;DHT22;55106;51.438;-0.098;2022-10-19T15:15:30;15.11;87.03
68276;DHT22;55106;51.438;-0.098;2022-10-19T15:20:36;15.03;87.47
68276;DHT22;55106;51.438;-0.098;2022-10-19T15:26:11;14.96;87.68
68276;DHT22;55106;51.438;-0.098;2022-10-19T15:28:38;14.91;87.94
68276;DHT22;55106;51.438;-0.098;2022-10-19T15:31:24;14.94;87.72
68276;DHT22;55106;51.438;-0.098;2022-10-19T15:36:17;14.88;87.87
68276;DHT22;55106;51.438;-0.098;2022-10-19T15:39:11;14.88;88.04
68276;DHT22;55106;51.438;-0.098;2022-10-19T15:41:42;14.86;88.04
68276;DHT22;55106;51.438;-0.098;2022-10-19T15:44:31;14.88;88.29
68276;DHT22;55106;51.438;-0.098;2022-10-19T15:47:23;14.86;88.36
68276;DHT22;55106;51.438;-0.098;2022-10-19T15:49:53;14.79;88.59
68276;DHT22;55106;51.438;-0.098;2022-10-19T15:52:28;14.73;88.85
68276;DHT22;55106;51.438;-0.098;2022-10-19T15:54:56;14.70;88.94
68276;DHT22;55106;51.438;-0.098;2022-10-19T15:57:36;14.63;89.18
68276;DHT22;55106;51.438;-0.098;2022-10-19T16:00:20;14.65;89.25
68276;DHT22;55106;51.438;-0.098;2022-10-19T16:02:46;14.62;89.37
68276;DHT22;55106;51.438;-0.098;2022-10-19T16:05:11;14.58;89.49
68276;DHT22;55106;51.438;-0.098;2022-10-19T16:07:38;14.55;89.47
68276;DHT22;55106;51.438;-0.098;2022-10-19T16:10:14;14.52;89.51
68276;DHT22;55106;51.438;-0.098;2022-10-19T16:12:40;14.52;89.55
68276;DHT22;55106;51.438;-0.098;2022-10-19T16:15:06;14.49;89.64
68276;DHT22;55106;51.438;-0.098;2022-10-19T16:17:31;14.49;89.66
68276;DHT22;55106;51.438;-0.098;2022-10-19T16:19:57;14.46;89.72
68276;DHT22;55106;51.438;-0.098;2022-10-19T16:22:23;14.42;89.95
68276;DHT22;55106;51.438;-0.098;2022-10-19T16:24:48;14.42;89.93
68276;DHT22;55106;51.438;-0.098;2022-10-19T16:27:14;14.45;89.98
68276;DHT22;55106;51.438;-0.098;2022-10-19T16:29:41;14.38;90.14
68276;DHT22;55106;51.438;-0.098;2022-10-19T16:32:07;14.35;90.21
68276;DHT22;55106;51.438;-0.098;2022-10-19T16:34:33;14.36;90.06
68276;DHT22;55106;51.438;-0.098;2022-10-19T16:36:59;14.33;90.08
68276;DHT22;55106;51.438;-0.098;2022-10-19T16:39:28;14.35;89.97
68276;DHT22;55106;51.438;-0.098;2022-10-19T16:41:54;14.26;90.27
68276;DHT22;55106;51.438;-0.098;2022-10-19T16:44:19;14.29;90.21
68276;DHT22;55106;51.438;-0.098;2022-10-19T16:46:45;14.24;90.23
68276;DHT22;55106;51.438;-0.098;2022-10-19T16:49:11;14.25;90.23
68276;DHT22;55106;51.438;-0.098;2022-10-19T16:51:41;14.22;90.47
68276;DHT22;55106;51.438;-0.098;2022-10-19T16:54:09;14.21;90.58
68276;DHT22;55106;51.438;-0.098;2022-10-19T16:56:42;14.24;90.47
68276;DHT22;55106;51.438;-0.098;2022-10-19T16:59:10;14.19;90.64
68276;DHT22;55106;51.438;-0.098;2022-10-19T17:01:38;14.22;90.63
68276;DHT22;55106;51.438;-0.098;2022-10-19T17:04:05;14.19;90.75
68276;DHT22;55106;51.438;-0.098;2022-10-19T17:06:32;14.18;90.72
68276;DHT22;55106;51.438;-0.098;2022-10-19T17:08:59;14.19;90.80
68276;DHT22;55106;51.438;-0.098;2022-10-19T17:11:30;14.14;90.99
68276;DHT22;55106;51.438;-0.098;2022-10-19T17:13:58;14.18;90.87
68276;DHT22;55106;51.438;-0.098;2022-10-19T17:16:25;14.18;90.71
68276;DHT22;55106;51.438;-0.098;2022-10-19T17:18:59;14.22;90.76
68276;DHT22;55106;51.438;-0.098;2022-10-19T17:21:30;14.17;90.90
68276;DHT22;55106;51.438;-0.098;2022-10-19T17:23:59;14.18;90.79
68276;DHT22;55106;51.438;-0.098;2022-10-19T17:26:33;14.15;90.93
68276;DHT22;55106;51.438;-0.098;2022-10-19T17:29:04;14.17;90.82
68276;DHT22;55106;51.438;-0.098;2022-10-19T17:31:30;14.17;90.82
68276;DHT22;55106;51.438;-0.098;2022-10-19T17:33:57;14.14;90.90
68276;DHT22;55106;51.438;-0.098;2022-10-19T17:36:29;14.12;90.93
68276;DHT22;55106;51.438;-0.098;2022-10-19T17:38:58;14.12;90.72
68276;DHT22;55106;51.438;-0.098;2022-10-19T17:41:25;14.15;90.73
68276;DHT22;55106;51.438;-0.098;2022-10-19T17:43:54;14.14;90.79
68276;DHT22;55106;51.438;-0.098;2022-10-19T17:46:23;14.18;90.62
68276;DHT22;55106;51.438;-0.098;2022-10-19T17:48:50;14.19;90.66
68276;DHT22;55106;51.438;-0.098;2022-10-19T17:51:19;14.21;90.66
68276;DHT22;55106;51.438;-0.098;2022-10-19T17:53:47;14.26;90.41
68276;DHT22;55106;51.438;-0.098;2022-10-19T17:56:15;14.26;90.50